Time;durP1;ratioP1;P1;durP2;ratioP2;P2;SDS_P1;SDS_P2;PMS_P1;PMS_P2;Temp;Humidity;BMP_temperature;BMP_pressure;BME280_temperature;BME280_humidity;BME280_pressure;Samples;Min_cycle;Max_cycle;Signal;HPM_P1;HPM_P2
2022/11/29 00:02:27;;;;;;;46.20;24.60;;;;;;;-2.05;92.71;98853.80;103247;1285;138256;-74
2022/11/29 00:04:54;;;;;;;49.60;24.60;;;;;;;-2.07;92.61;98852.73;103349;1286;22533;-74
2022/11/29 00:07:23;;;;;;;;;;;;;;;-2.06;93.15;98849.84;102914;1295;140095;-74
2022/11/29 00:09:50;;;;;;;44.30;22.50;;;;;;;-2.05;93.62;98849.01;103266;1311;25406;-74
2022/11/29 00:12:17;;;;;;;44.40;22.30;;;;;;;-2.05;93.99;98850.27;103242;1285;25361;-74
2022/11/29 00:14:44;;;;;;;44.20;22.20;;;;;;;-2.06;93.93;98852.27;102900;1292;138205;-74
2022/11/29 00:17:11;;;;;;;43.70;23.90;;;;;;;-2.06;93.93;98858.91;103092;1289;23419;-74
2022/11/29 00:19:37;;;;;;;46.00;24.00;;;;;;;-2.06;94.10;98856.89;102978;1291;138243;-74
2022/11/29 00:22:04;;;;;;;49.20;24.00;;;;;;;-2.05;94.38;98852.35;103174;1289;22480;-74
2022/11/29 00:24:31;;;;;;;47.50;25.30;;;;;;;-2.04;94.21;98849.42;103007;1313;23419;-74
2022/11/29 00:26:59;;;;;;;41.30;22.60;;;;;;;-2.04;93.75;98854.05;103091;1300;138350;-74
2022/11/29 00:29:28;;;;;;;50.90;27.80;;;;;;;-2.06;93.32;98852.81;103082;1293;25600;-74
2022/11/29 00:31:58;;;;;;;51.20;27.40;;;;;;;-2.10;93.09;98849.08;103119;1310;138376;-74
2022/11/29 00:34:25;;;;;;;57.60;28.40;;;;;;;-2.17;92.77;98849.09;103085;1295;24502;-74
2022/11/29 00:36:52;;;;;;;52.00;27.90;;;;;;;-2.20;93.40;98845.85;103239;1301;139361;-74
2022/11/29 00:39:19;;;;;;;57.20;29.60;;;;;;;-2.20;93.64;98846.23;103083;1292;22929;-74
2022/11/29 00:41:46;;;;;;;56.10;28.60;;;;;;;-2.20;93.58;98847.62;103162;1300;22485;-74
2022/11/29 00:44:13;;;;;;;54.70;27.00;;;;;;;-2.20;93.66;98848.19;102929;1301;138198;-74
2022/11/29 00:46:40;;;;;;;51.90;27.30;;;;;;;-2.19;93.80;98844.30;103490;1294;26176;-74
2022/11/29 00:49:07;;;;;;;54.70;26.30;;;;;;;-2.17;93.72;98840.15;103362;1292;138464;-74
2022/11/29 00:51:33;;;;;;;47.60;24.90;;;;;;;-2.16;93.77;98839.16;103424;1313;22560;-74
2022/11/29 00:54:00;;;;;;;44.90;23.80;;;;;;;-2.15;93.61;98840.67;103206;1290;22604;-74
2022/11/29 00:56:28;;;;;;;53.50;27.70;;;;;;;-2.16;93.25;98844.16;103044;1308;138255;-74
2022/11/29 00:58:55;;;;;;;54.10;28.50;;;;;;;-2.15;93.51;98836.95;103562;1285;23918;-74
2022/11/29 01:01:22;;;;;;;56.60;26.20;;;;;;;-2.16;93.38;98841.67;103201;1311;138694;-74
2022/11/29 01:03:49;;;;;;;56.60;28.40;;;;;;;-2.16;93.30;98842.98;103388;1298;23164;-74
2022/11/29 01:06:17;;;;;;;53.50;26.50;;;;;;;-2.17;93.36;98843.02;103297;1310;22503;-74
2022/11/29 01:08:45;;;;;;;52.60;26.00;;;;;;;-2.17;93.01;98840.94;103194;1307;138485;-74
2022/11/29 01:11:21;;;;;;;49.80;24.10;;;;;;;-2.20;92.87;98836.95;103065;1288;23337;-74
2022/11/29 01:13:49;;;;;;;50.00;25.10;;;;;;;-2.24;93.13;98839.46;103425;1292;138227;-74
2022/11/29 01:16:16;;;;;;;52.60;27.20;;;;;;;-2.26;93.45;98840.21;103478;1304;22933;-74
2022/11/29 01:18:43;;;;;;;55.40;25.90;;;;;;;-2.24;93.58;98838.11;103137;1298;25303;-74
2022/11/29 01:21:20;;;;;;;47.90;24.60;;;;;;;-2.24;93.67;98832.18;103101;1292;22590;-75
2022/11/29 01:23:49;;;;;;;48.20;24.80;;;;;;;-2.24;93.32;98834.33;103463;1295;25232;-74
2022/11/29 01:26:27;;;;;;;52.30;25.60;;;;;;;-2.24;93.24;98829.34;103167;1310;138301;-74
2022/11/29 01:28:56;;;;;;;43.10;23.70;;;;;;;-2.25;93.08;98828.91;103026;1304;23221;-74
2022/11/29 01:31:34;;;;;;;45.60;23.90;;;;;;;-2.26;92.82;98827.40;102930;1296;138473;-75
2022/11/29 01:34:03;;;;;;;48.60;24.30;;;;;;;-2.27;92.89;98827.33;103460;1289;25256;-74
2022/11/29 01:36:31;;;;;;;47.50;23.50;;;;;;;-2.29;92.80;98821.52;103182;1288;22581;-74
2022/11/29 01:39:01;;;;;;;52.00;26.70;;;;;;;-2.32;92.63;98814.11;103071;1298;138231;-74
2022/11/29 01:41:33;;;;;;;49.80;24.80;;;;;;;-2.35;92.36;98819.42;103428;1295;24282;-75
2022/11/29 01:44:06;;;;;;;48.40;24.70;;;;;;;-2.39;92.47;98814.09;103122;1303;138292;-74
2022/11/29 01:46:36;;;;;;;50.40;25.50;;;;;;;-2.42;92.60;98813.20;103226;1310;24395;-74
2022/11/29 01:49:09;;;;;;;55.40;26.90;;;;;;;-2.46;92.09;98806.13;103531;1294;138384;-75
2022/11/29 01:51:39;;;;;;;57.70;27.80;;;;;;;-2.50;92.29;98817.56;103379;1296;25216;-75
2022/11/29 01:54:07;;;;;;;53.10;27.20;;;;;;;-2.53;92.54;98817.61;103337;1292;23385;-75
2022/11/29 01:56:36;;;;;;;58.10;31.00;;;;;;;-2.55;92.36;98815.38;104041;1306;138289;-75
2022/11/29 01:59:08;;;;;;;49.40;26.70;;;;;;;-2.57;92.52;98814.68;103406;1297;25357;-75
2022/11/29 02:01:36;;;;;;;52.80;26.70;;;;;;;-2.60;92.33;98818.13;103443;1310;138978;-74
2022/11/29 02:04:05;;;;;;;50.00;26.60;;;;;;;-2.63;92.00;98821.70;103346;1300;23301;-75
2022/11/29 02:06:33;;;;;;;54.20;26.90;;;;;;;-2.69;91.97;98822.45;103106;1294;25336;-74
2022/11/29 02:09:01;;;;;;;60.10;28.10;;;;;;;-2.75;92.07;98821.05;103030;1310;138349;-74
2022/11/29 02:11:34;;;;;;;49.40;25.20;;;;;;;-2.78;92.74;98821.15;103317;1295;25202;-74
2022/11/29 02:14:22;;;;;;;49.90;26.60;;;;;;;-2.78;92.79;98819.20;103030;1295;138190;-74
2022/11/29 02:17:08;;;;;;;49.60;26.70;;;;;;;-2.79;92.96;98818.05;103381;1293;22496;-74
2022/11/29 02:19:56;;;;;;;52.30;25.40;;;;;;;-2.80;93.21;98817.44;103276;1303;138597;-74
2022/11/29 02:22:29;;;;;;;52.30;26.20;;;;;;;-2.78;93.32;98821.60;103068;1288;24409;-74
2022/11/29 02:25:24;;;;;;;50.30;25.60;;;;;;;-2.78;93.64;98823.83;103276;1301;138683;-74
2022/11/29 02:28:13;;;;;;;56.30;27.20;;;;;;;-2.75;93.76;98823.94;103166;1288;22521;-74
2022/11/29 02:31:02;;;;;;;52.10;26.30;;;;;;;-2.74;93.66;98824.38;103072;1291;22489;-74
2022/11/29 02:33:54;;;;;;;55.40;27.10;;;;;;;-2.74;93.67;98823.30;103043;1313;23114;-74
2022/11/29 02:37:00;;;;;;;58.10;27.70;;;;;;;-2.76;93.31;98824.56;103033;1288;22484;-74
2022/11/29 02:39:57;;;;;;;54.90;26.60;;;;;;;-2.79;93.12;98825.21;103197;1304;22486;-74
2022/11/29 02:42:47;;;;;;;55.50;26.10;;;;;;;-2.83;93.15;98824.30;103036;1301;22474;-74
2022/11/29 02:45:32;;;;;;;54.30;26.60;;;;;;;-2.89;93.26;98824.90;103298;1294;138753;-74
2022/11/29 02:48:05;;;;;;;54.20;26.00;;;;;;;-2.94;93.55;98831.41;103034;1295;22861;-74
2022/11/29 02:50:57;;;;;;;56.20;26.20;;;;;;;-2.95;93.84;98827.13;103347;1284;139519;-74
2022/11/29 02:53:39;;;;;;;54.40;25.40;;;;;;;-2.94;94.10;98825.80;102972;1298;25374;-74
2022/11/29 02:56:15;;;;;;;53.80;25.80;;;;;;;-2.95;94.29;98825.70;103056;1305;139213;-74
2022/11/29 02:59:01;;;;;;;54.10;24.00;;;;;;;-2.95;94.58;98826.39;103325;1289;25400;-74
2022/11/29 03:01:52;;;;;;;51.80;23.80;;;;;;;-2.95;94.77;98824.13;103062;1293;139101;-74
2022/11/29 03:04:47;;;;;;;56.20;24.70;;;;;;;-2.95;95.04;98830.29;102920;1301;25321;-74
2022/11/29 03:07:54;;;;;;;42.50;20.30;;;;;;;-2.95;95.44;98831.86;102912;1288;138831;-73
2022/11/29 03:10:53;;;;;;;54.10;23.00;;;;;;;-2.96;95.72;98839.77;102636;1291;22482;-74
2022/11/29 03:13:39;;;;;;;54.40;23.60;;;;;;;-2.97;96.04;98842.94;102046;1306;139164;-73
2022/11/29 03:16:39;;;;;;;57.70;23.20;;;;;;;-2.97;96.50;98845.06;101966;1298;25497;-73
2022/11/29 03:19:12;;;;;;;52.80;22.30;;;;;;;-2.95;96.76;98849.28;101742;1315;139897;-73
2022/11/29 03:21:51;;;;;;;56.50;25.10;;;;;;;-2.92;96.91;98853.61;101923;1306;22714;-74
2022/11/29 03:24:45;;;;;;;55.80;26.00;;;;;;;-2.89;97.18;98850.99;101840;1324;22489;-74
2022/11/29 03:27:20;;;;;;;52.70;23.70;;;;;;;-2.82;97.60;98853.41;101141;1317;139230;-74
2022/11/29 03:30:00;;;;;;;56.60;24.60;;;;;;;-2.77;97.68;98858.20;101617;1331;22790;-74
2022/11/29 03:32:47;;;;;;;58.40;25.40;;;;;;;-2.72;97.82;98856.16;101070;1309;138648;-74
2022/11/29 03:35:39;;;;;;;51.70;23.90;;;;;;;-2.66;97.88;98854.46;101208;1309;22970;-74
2022/11/29 03:38:37;;;;;;;55.60;23.60;;;;;;;-2.62;97.68;98855.52;101078;1323;139413;-74
2022/11/29 03:41:24;;;;;;;58.30;23.60;;;;;;;-2.59;97.71;98853.97;101220;1332;22581;-73
2022/11/29 03:43:59;;;;;;;58.30;27.00;;;;;;;-2.59;97.60;98859.68;101478;1321;139020;-73
2022/11/29 03:46:41;;;;;;;56.50;24.50;;;;;;;-2.56;97.69;98865.27;101214;1318;22517;-73
2022/11/29 03:49:15;;;;;;;51.60;23.40;;;;;;;-2.52;97.90;98867.33;101525;1319;139945;-74
2022/11/29 03:51:56;;;;;;;58.00;25.10;;;;;;;-2.48;97.79;98869.60;102269;1294;25345;-74
2022/11/29 03:54:55;;;;;;;54.60;25.00;;;;;;;-2.46;97.63;98869.66;102352;1317;23062;-74
2022/11/29 03:57:33;;;;;;;53.90;24.00;;;;;;;-2.45;97.57;98875.17;102317;1315;139882;-74
2022/11/29 04:00:03;;;;;;;52.80;24.50;;;;;;;-2.46;97.47;98876.39;102508;1311;22556;-73
2022/11/29 04:02:50;;;;;;;56.90;24.60;;;;;;;-2.46;97.44;98883.10;102577;1304;138415;-74
2022/11/29 04:05:52;;;;;;;56.60;24.70;;;;;;;-2.42;97.49;98886.67;103014;1297;24288;-74
2022/11/29 04:08:40;;;;;;;52.60;24.60;;;;;;;-2.39;97.88;98882.27;102628;1313;139398;-73
2022/11/29 04:11:29;;;;;;;54.50;24.30;;;;;;;-2.35;97.80;98885.06;103075;1291;25489;-74
2022/11/29 04:13:59;;;;;;;;;;;;;;;-2.31;97.96;98884.67;103262;1296;138221;-73
2022/11/29 04:16:50;;;;;;;50.10;21.60;;;;;;;-2.29;97.81;98886.36;103177;1310;22535;-74
2022/11/29 04:19:26;;;;;;;48.70;21.60;;;;;;;-2.28;97.45;98889.14;103276;1286;138496;-74
2022/11/29 04:22:08;;;;;;;50.40;23.10;;;;;;;-2.30;97.07;98892.36;103074;1284;24247;-74
2022/11/29 04:25:09;;;;;;;49.40;23.10;;;;;;;-2.28;97.34;98885.80;103146;1288;22490;-74
2022/11/29 04:27:57;;;;;;;41.80;21.30;;;;;;;-2.27;97.37;98892.75;103191;1313;22938;-74
2022/11/29 04:30:25;;;;;;;47.80;21.60;;;;;;;-2.31;97.07;98896.69;103092;1306;22504;-74
2022/11/29 04:32:58;;;;;;;50.00;21.40;;;;;;;-2.30;97.24;98895.02;103034;1295;138238;-74
2022/11/29 04:36:10;;;;;;;43.80;21.30;;;;;;;-2.28;97.33;98897.17;103148;1295;22477;-74
2022/11/29 04:38:56;;;;;;;47.00;21.60;;;;;;;-2.28;97.32;98899.87;102969;1301;139524;-74
2022/11/29 04:41:34;;;;;;;44.60;19.70;;;;;;;-2.24;97.52;98906.55;103294;1310;22490;-74
2022/11/29 04:44:19;;;;;;;41.60;19.10;;;;;;;-2.22;97.16;98914.73;102899;1295;138283;-74
2022/11/29 04:47:25;;;;;;;37.20;17.90;;;;;;;-2.29;96.52;98917.14;103587;1307;22524;-74
2022/11/29 04:50:04;;;;;;;40.70;18.50;;;;;;;-2.34;96.41;98922.67;103051;1311;138242;-74
2022/11/29 04:52:34;;;;;;;43.30;19.30;;;;;;;-2.34;96.96;98925.82;103279;1288;22962;-74
2022/11/29 04:55:20;;;;;;;46.80;19.80;;;;;;;-2.31;97.26;98929.32;103041;1287;25355;-74
2022/11/29 04:57:57;;;;;;;41.70;19.40;;;;;;;-2.29;97.20;98927.44;103159;1291;22487;-74
2022/11/29 05:00:24;;;;;;;40.80;18.60;;;;;;;-2.25;97.44;98929.91;103062;1288;22519;-74
2022/11/29 05:02:57;;;;;;;45.00;20.80;;;;;;;-2.22;97.59;98935.84;103012;1305;138645;-74
2022/11/29 05:05:44;;;;;;;42.70;19.10;;;;;;;-2.17;97.58;98935.02;103576;1303;24272;-74
2022/11/29 05:08:39;;;;;;;45.50;19.60;;;;;;;-2.14;97.14;98935.42;103064;1303;138399;-73
2022/11/29 05:11:28;;;;;;;39.50;18.00;;;;;;;-2.12;97.06;98941.82;103096;1285;22534;-73
2022/11/29 05:14:14;;;;;;;;;;;;;;;-2.12;96.64;98941.21;103021;1289;138538;-73
2022/11/29 05:16:44;;;;;;;35.90;17.70;;;;;;;-2.13;96.46;98940.16;103058;1286;25317;-74
2022/11/29 05:19:24;;;;;;;39.20;17.80;;;;;;;-2.14;96.83;98943.91;102950;1303;138603;-74
2022/11/29 05:22:22;;;;;;;40.10;17.60;;;;;;;-2.13;96.63;98946.14;103071;1305;22503;-74
2022/11/29 05:24:52;;;;;;;34.00;17.40;;;;;;;-2.11;96.84;98948.26;103035;1298;25381;-74
2022/11/29 05:27:39;;;;;;;39.70;18.10;;;;;;;-2.10;96.71;98952.60;102983;1286;138273;-74
2022/11/29 05:30:16;;;;;;;47.60;20.90;;;;;;;-2.07;96.95;98954.46;103201;1295;22517;-74
2022/11/29 05:32:46;;;;;;;41.40;19.00;;;;;;;-2.02;97.18;98958.96;102988;1296;138198;-74
2022/11/29 05:35:40;;;;;;;38.40;16.30;;;;;;;-2.02;96.71;98958.28;103226;1285;22597;-74
2022/11/29 05:38:10;;;;;;;39.80;17.30;;;;;;;-2.03;96.30;98960.30;103091;1295;138362;-74
2022/11/29 05:40:56;;;;;;;35.70;18.00;;;;;;;-2.05;96.20;98968.49;102980;1288;24241;-73
2022/11/29 05:43:46;;;;;;;36.00;16.30;;;;;;;-2.06;96.08;98970.76;103308;1311;138384;-74
2022/11/29 05:46:20;;;;;;;38.30;16.70;;;;;;;-2.09;96.13;98972.80;103087;1288;24256;-74
2022/11/29 05:48:59;;;;;;;38.60;17.70;;;;;;;-2.10;96.19;98973.09;103353;1279;22473;-74
2022/11/29 05:51:44;;;;;;;39.90;19.00;;;;;;;-2.11;96.39;98973.77;102941;1286;140153;-74
2022/11/29 05:54:33;;;;;;;39.90;18.60;;;;;;;-2.15;95.95;98975.73;103800;1279;25798;-74
2022/11/29 05:57:19;;;;;;;35.20;15.50;;;;;;;-2.17;96.25;98976.65;103151;1285;138223;-74
2022/11/29 05:59:48;;;;;;;39.90;18.20;;;;;;;-2.17;96.47;98979.89;103429;1281;22546;-74
2022/11/29 06:02:27;;;;;;;42.80;17.30;;;;;;;-2.17;96.61;98974.01;104443;1287;138300;-74
2022/11/29 06:04:57;;;;;;;37.90;18.60;;;;;;;-2.14;96.79;98981.69;103905;1289;22253;-74
2022/11/29 06:07:44;;;;;;;43.30;18.80;;;;;;;-2.11;97.08;98985.69;103186;1288;138533;-73
2022/11/29 06:10:23;;;;;;;45.50;19.40;;;;;;;-2.05;97.18;98986.01;103834;1286;22567;-74
2022/11/29 06:13:16;;;;;;;42.10;18.70;;;;;;;-2.02;96.85;98989.55;102955;1295;24324;-74
2022/11/29 06:15:46;;;;;;;42.40;18.20;;;;;;;-1.97;97.37;98992.27;102974;1310;22602;-74
2022/11/29 06:18:22;;;;;;;45.40;19.30;;;;;;;-1.93;97.38;98991.73;103464;1289;22611;-74
2022/11/29 06:21:03;;;;;;;44.10;18.90;;;;;;;-1.89;97.32;98994.88;103125;1282;138894;-74
2022/11/29 06:23:52;;;;;;;42.10;18.50;;;;;;;-1.86;97.16;98998.14;103101;1298;23929;-74
2022/11/29 06:26:39;;;;;;;40.80;18.00;;;;;;;-1.85;96.93;98999.68;102884;1288;138430;-74
2022/11/29 06:29:24;;;;;;;36.50;16.70;;;;;;;-1.84;96.51;99005.77;102977;1286;24294;-73
2022/11/29 06:32:02;;;;;;;34.70;16.10;;;;;;;-1.83;96.47;99005.11;103127;1310;138817;-74
2022/11/29 06:34:39;;;;;;;37.50;16.70;;;;;;;-1.83;96.24;99008.20;102967;1292;22474;-73
2022/11/29 06:37:29;;;;;;;36.90;16.90;;;;;;;-1.81;96.78;99011.89;103318;1286;22485;-74
2022/11/29 06:39:56;;;;;;;39.40;16.50;;;;;;;-1.80;96.37;99012.54;103077;1285;22952;-74
2022/11/29 06:42:23;;;;;;;34.20;17.70;;;;;;;-1.83;95.88;99013.14;103388;1295;24410;-74
2022/11/29 06:44:50;;;;;;;37.40;16.50;;;;;;;-1.85;95.87;99011.23;103823;1295;138334;-74
2022/11/29 06:47:27;;;;;;;38.60;17.50;;;;;;;-1.89;95.38;99016.09;103080;1289;25444;-74
2022/11/29 06:50:07;;;;;;;42.60;17.70;;;;;;;-1.92;95.99;99017.00;103574;1295;138413;-74
2022/11/29 06:52:44;;;;;;;31.30;15.90;;;;;;;-1.93;95.66;99021.02;103230;1286;22478;-74
2022/11/29 06:55:26;;;;;;;40.30;16.50;;;;;;;-1.93;95.91;99024.48;103726;1295;24046;-74
2022/11/29 06:58:00;;;;;;;38.90;17.20;;;;;;;-1.92;96.44;99024.48;103026;1305;22501;-74
2022/11/29 07:00:54;;;;;;;38.10;17.50;;;;;;;-1.89;96.27;99022.44;103014;1304;24338;-74
2022/11/29 07:03:33;;;;;;;36.00;16.90;;;;;;;-1.86;96.13;99024.87;102855;1305;138194;-74
2022/11/29 07:06:09;;;;;;;37.50;17.10;;;;;;;-1.90;95.62;99023.60;103060;1311;22734;-74
2022/11/29 07:08:38;;;;;;;35.00;15.50;;;;;;;-1.94;95.56;99025.45;103243;1310;138499;-74
2022/11/29 07:11:05;;;;;;;39.80;16.80;;;;;;;-1.96;95.77;99027.79;103180;1310;24334;-74
2022/11/29 07:13:32;;;;;;;38.10;16.90;;;;;;;-2.00;95.87;99026.73;103080;1310;138592;-74
2022/11/29 07:16:29;;;;;;;34.20;14.70;;;;;;;-2.04;95.53;99029.61;103352;1279;26061;-74
2022/11/29 07:19:20;;;;;;;34.80;15.40;;;;;;;-2.04;96.19;99035.69;103036;1283;22490;-70
2022/11/29 07:22:29;;;;;;;44.70;17.30;;;;;;;-1.89;98.56;99040.79;105254;1296;22314;-75
2022/11/29 07:25:15;;;;;;;50.80;19.30;;;;;;;-1.79;97.65;99043.70;104930;1286;22654;-75
2022/11/29 07:27:57;;;;;;;46.80;17.90;;;;;;;-1.79;96.57;99044.93;105166;1286;138272;-75
2022/11/29 07:30:38;;;;;;;39.20;16.90;;;;;;;-1.75;96.86;99049.20;103886;1288;25330;-75
2022/11/29 07:33:42;;;;;;;34.20;15.20;;;;;;;-1.70;96.74;99042.17;103101;1305;138288;-75
2022/11/29 07:36:15;;;;;;;36.00;15.40;;;;;;;-1.65;96.69;99047.17;103297;1305;22944;-75
2022/11/29 07:39:02;;;;;;;34.80;15.80;;;;;;;-1.64;96.06;99049.70;104379;1287;138380;-75
2022/11/29 07:42:01;;;;;;;38.40;16.50;;;;;;;-1.57;96.93;99049.17;103440;1310;22485;-75
2022/11/29 07:44:30;;;;;;;58.10;18.80;;;;;;;-1.61;95.24;99056.94;102930;1301;139508;-75
2022/11/29 07:46:57;;;;;;;64.40;19.40;;;;;;;-1.65;95.34;99053.44;102611;1294;22585;-75
2022/11/29 07:49:24;;;;;;;51.10;18.20;;;;;;;-1.70;95.13;99055.68;102411;1316;138844;-75
2022/11/29 07:51:53;;;;;;;38.50;17.30;;;;;;;-1.69;95.77;99057.54;102524;1295;22487;-75
2022/11/29 07:54:21;;;;;;;38.50;17.30;;;;;;;-1.66;96.12;99058.98;102687;1313;22507;-75
2022/11/29 07:56:48;;;;;;;41.60;17.10;;;;;;;-1.62;96.10;99056.48;102695;1294;138384;-75
2022/11/29 07:59:15;;;;;;;36.30;15.50;;;;;;;-1.64;95.21;99057.25;102415;1293;22534;-75
2022/11/29 08:01:42;;;;;;;36.90;14.70;;;;;;;-1.73;95.01;99064.10;102497;1316;138743;-75
2022/11/29 08:04:09;;;;;;;40.70;16.80;;;;;;;-1.80;95.06;99063.89;103297;1292;25393;-75
2022/11/29 08:06:36;;;;;;;36.80;15.50;;;;;;;-1.81;95.67;99065.63;102748;1284;22878;-75
2022/11/29 08:09:04;;;;;;;42.60;18.10;;;;;;;-1.80;95.74;99065.38;102343;1316;139032;-75
2022/11/29 08:11:31;;;;;;;44.60;18.90;;;;;;;-1.80;95.97;99063.70;102988;1301;24225;-75
2022/11/29 08:14:00;;;;;;;54.70;20.70;;;;;;;-1.78;96.43;99061.27;102339;1298;138910;-76
2022/11/29 08:16:28;;;;;;;36.10;16.60;;;;;;;-1.72;96.47;99061.38;103960;1288;22549;-76
2022/11/29 08:18:55;;;;;;;42.50;17.80;;;;;;;-1.67;96.66;99064.80;104148;1294;23289;-76
2022/11/29 08:21:22;;;;;;;39.50;17.60;;;;;;;-1.60;96.85;99063.93;103926;1297;138777;-76
2022/11/29 08:23:49;;;;;;;41.30;17.00;;;;;;;-1.54;96.68;99063.83;103149;1289;22541;-75
2022/11/29 08:26:19;;;;;;;39.70;17.20;;;;;;;-1.49;96.27;99068.15;103327;1288;138240;-75
2022/11/29 08:28:50;;;;;;;46.20;18.90;;;;;;;-1.43;96.77;99069.71;103713;1285;25452;-76
2022/11/29 08:31:19;;;;;;;42.50;19.40;;;;;;;-1.40;96.01;99068.13;104131;1288;22481;-76
2022/11/29 08:33:46;;;;;;;42.40;17.70;;;;;;;-1.35;96.30;99069.95;104819;1288;138450;-76
2022/11/29 08:36:16;;;;;;;47.60;19.80;;;;;;;-1.30;96.41;99073.25;103628;1286;22484;-76
2022/11/29 08:38:44;;;;;;;43.70;18.40;;;;;;;-1.23;96.41;99077.86;104059;1295;138210;-76
2022/11/29 08:41:15;;;;;;;38.40;16.50;;;;;;;-1.16;96.28;99081.46;104278;1295;22490;-76
2022/11/29 08:43:42;;;;;;;41.70;18.90;;;;;;;-1.10;96.36;99087.45;103601;1288;138787;-76
2022/11/29 08:46:10;;;;;;;36.30;16.80;;;;;;;-1.06;95.65;99089.92;103226;1294;24253;-75
2022/11/29 08:48:37;;;;;;;38.20;17.10;;;;;;;-1.02;95.54;99089.83;103003;1295;25241;-75
2022/11/29 08:51:05;;;;;;;36.30;15.50;;;;;;;-1.00;95.40;99090.70;103121;1310;138234;-75
2022/11/29 08:53:41;;;;;;;42.30;17.70;;;;;;;-1.01;94.82;99093.46;103668;1297;23223;-75
2022/11/29 08:56:10;;;;;;;38.50;18.30;;;;;;;-1.04;94.92;99093.58;103777;1298;138796;-75
2022/11/29 08:58:38;;;;;;;40.70;18.10;;;;;;;-1.05;94.91;99093.02;103329;1298;22474;-75
2022/11/29 09:01:12;;;;;;;40.80;18.20;;;;;;;-1.05;94.96;99095.83;103237;1296;22319;-75
2022/11/29 09:03:58;;;;;;;41.20;18.50;;;;;;;-1.00;95.59;99093.08;103549;1310;138098;-75
2022/11/29 09:06:27;;;;;;;41.70;18.40;;;;;;;-0.95;95.56;99094.15;103081;1305;22483;-75
2022/11/29 09:08:55;;;;;;;43.20;18.50;;;;;;;-0.94;95.10;99093.66;103343;1305;138236;-74
2022/11/29 09:11:24;;;;;;;35.50;17.60;;;;;;;-0.97;94.27;99090.44;103777;1294;22594;-74
2022/11/29 09:13:53;;;;;;;43.50;18.40;;;;;;;-1.01;93.91;99094.21;103520;1295;138429;-74
2022/11/29 09:16:24;;;;;;;38.60;17.60;;;;;;;-1.06;94.03;99090.23;103216;1289;22482;-74
2022/11/29 09:18:54;;;;;;;41.30;18.50;;;;;;;-1.10;94.31;99092.08;103518;1289;25411;-74
2022/11/29 09:21:26;;;;;;;44.40;17.90;;;;;;;-1.10;94.64;99085.15;103429;1288;138491;-74
2022/11/29 09:23:57;;;;;;;36.70;16.60;;;;;;;-1.08;94.95;99085.30;103172;1298;22477;-74
2022/11/29 09:26:31;;;;;;;34.70;17.10;;;;;;;-1.10;94.36;99091.43;103407;1310;138253;-74
2022/11/29 09:29:04;;;;;;;40.30;18.80;;;;;;;-1.11;94.86;99087.41;103185;1284;22482;-73
2022/11/29 09:31:35;;;;;;;39.70;17.50;;;;;;;-1.08;95.03;99083.32;103331;1286;138435;-73
2022/11/29 09:34:07;;;;;;;41.70;20.00;;;;;;;-1.05;95.12;99082.34;103513;1303;22481;-73
2022/11/29 09:36:43;;;;;;;40.60;18.70;;;;;;;-1.00;95.46;99084.48;103821;1286;22602;-73
2022/11/29 09:39:15;;;;;;;44.70;19.10;;;;;;;-0.97;95.13;99086.95;103091;1306;138233;-74
2022/11/29 09:41:54;;;;;;;45.10;19.30;;;;;;;-0.89;95.76;99089.62;103690;1307;24238;-73
2022/11/29 09:44:45;;;;;;;47.60;19.40;;;;;;;-0.81;95.38;99083.27;102990;1295;138271;-73
2022/11/29 09:47:21;;;;;;;41.90;19.10;;;;;;;-0.73;95.37;99084.81;103219;1298;22477;-73
2022/11/29 09:50:35;;;;;;;44.60;19.50;;;;;;;-0.67;95.72;99083.39;103214;1296;138419;-73
2022/11/29 09:53:25;;;;;;;37.10;17.20;;;;;;;-0.54;95.48;99082.66;103323;1296;23363;-73
2022/11/29 09:55:58;;;;;;;40.80;18.50;;;;;;;-0.54;94.48;99078.15;104031;1286;139258;-73
2022/11/29 09:58:54;;;;;;;43.80;19.60;;;;;;;-0.58;93.81;99081.84;103236;1294;24290;-73
2022/11/29 10:01:37;;;;;;;39.20;18.60;;;;;;;-0.60;94.22;99083.26;103137;1301;139009;-73
2022/11/29 10:04:16;;;;;;;39.60;18.60;;;;;;;-0.57;94.64;99083.31;103393;1311;22472;-73
2022/11/29 10:06:58;;;;;;;38.50;18.70;;;;;;;-0.53;94.44;99085.80;103464;1306;22480;-73
2022/11/29 10:09:39;;;;;;;40.20;19.30;;;;;;;-0.51;94.07;99084.98;103031;1295;138628;-73
2022/11/29 10:12:33;;;;;;;44.10;20.80;;;;;;;-0.50;94.21;99082.89;103672;1279;22398;-73
2022/11/29 10:15:11;;;;;;;47.80;21.20;;;;;;;-0.48;93.97;99079.52;103145;1303;138397;-73
2022/11/29 10:17:49;;;;;;;45.30;19.90;;;;;;;-0.48;93.72;99076.48;103674;1302;22509;-73
2022/11/29 10:20:31;;;;;;;47.60;19.40;;;;;;;-0.47;93.98;99078.35;103106;1286;138595;-74
2022/11/29 10:23:07;;;;;;;42.00;18.60;;;;;;;-0.44;94.10;99078.60;103250;1288;22470;-74
2022/11/29 10:25:44;;;;;;;39.80;17.00;;;;;;;-0.43;93.98;99085.80;103142;1278;140119;-74
2022/11/29 10:28:17;;;;;;;38.30;18.20;;;;;;;-0.41;93.56;99085.21;103182;1302;22479;-73
2022/11/29 10:30:46;;;;;;;38.90;17.50;;;;;;;-0.39;93.50;99083.08;103116;1310;24433;-73
2022/11/29 10:33:27;;;;;;;42.10;19.50;;;;;;;-0.39;93.25;99086.28;103220;1295;138615;-73
2022/11/29 10:36:01;;;;;;;42.70;19.50;;;;;;;-0.39;93.28;99081.79;102988;1305;22471;-73
2022/11/29 10:38:28;;;;;;;42.10;19.70;;;;;;;-0.37;93.32;99083.19;103213;1302;138752;-73
2022/11/29 10:41:08;;;;;;;41.60;18.00;;;;;;;-0.35;93.08;99079.95;103075;1288;23750;-73
2022/11/29 10:43:36;;;;;;;34.60;16.00;;;;;;;-0.30;93.69;99077.13;103009;1292;138740;-73
2022/11/29 10:46:08;;;;;;;38.30;18.40;;;;;;;-0.29;93.15;99080.25;103219;1297;22521;-73
2022/11/29 10:48:35;;;;;;;42.30;18.50;;;;;;;-0.28;92.80;99075.88;103102;1304;24080;-73
2022/11/29 10:51:02;;;;;;;42.00;18.70;;;;;;;-0.27;93.11;99070.63;103008;1285;138392;-73
2022/11/29 10:53:35;;;;;;;38.60;18.40;;;;;;;-0.26;92.96;99070.16;103164;1294;22542;-73
2022/11/29 10:56:15;;;;;;;45.80;21.50;;;;;;;-0.25;93.23;99069.13;103411;1297;138484;-73
2022/11/29 10:58:55;;;;;;;43.50;19.20;;;;;;;-0.26;93.10;99067.81;103170;1310;24260;-72
2022/11/29 11:01:24;;;;;;;44.90;19.60;;;;;;;-0.23;93.33;99065.16;103110;1286;139439;-73
2022/11/29 11:03:53;;;;;;;;;;;;;;;-0.20;93.37;99057.68;103276;1298;22457;-73
2022/11/29 11:06:42;;;;;;;40.90;18.70;;;;;;;-0.16;92.85;99055.89;103032;1293;22494;-72
2022/11/29 11:09:26;;;;;;;41.80;18.20;;;;;;;-0.13;93.05;99055.21;102995;1288;138286;-73
2022/11/29 11:11:56;;;;;;;41.10;18.30;;;;;;;-0.11;92.96;99053.36;104228;1287;24365;-73
2022/11/29 11:14:27;;;;;;;43.60;19.30;;;;;;;-0.09;93.11;99051.16;102893;1296;138257;-73
2022/11/29 11:16:54;;;;;;;47.30;20.80;;;;;;;-0.05;93.14;99053.24;103202;1304;22523;-72
2022/11/29 11:19:39;;;;;;;42.80;19.10;;;;;;;-0.02;92.86;99047.06;103128;1310;138470;-73
2022/11/29 11:22:20;;;;;;;45.00;19.40;;;;;;;-0.03;92.60;99052.86;103245;1279;24232;-73
2022/11/29 11:24:56;;;;;;;45.30;18.70;;;;;;;-0.00;93.14;99054.07;103093;1296;22715;-72
2022/11/29 11:27:38;;;;;;;43.80;19.10;;;;;;;0.03;93.06;99056.00;103105;1300;139276;-73
2022/11/29 11:30:27;;;;;;;43.30;19.30;;;;;;;0.06;92.88;99056.94;103088;1313;24193;-72
2022/11/29 11:33:19;;;;;;;46.60;21.20;;;;;;;0.08;92.28;99058.74;103445;1288;138120;-73
2022/11/29 11:36:05;;;;;;;48.00;20.50;;;;;;;0.11;92.72;99061.93;103514;1288;22484;-73
2022/11/29 11:38:37;;;;;;;43.20;19.60;;;;;;;0.14;92.37;99062.73;102940;1303;138277;-73
2022/11/29 11:42:35;;;;;;;33.40;16.60;;;;;;;0.10;91.74;99062.23;103113;1310;24370;-73
2022/11/29 11:44:25;;;;;;;41.00;19.00;;;;;;;0.05;91.64;99058.14;101898;1295;2037278;-73
2022/11/29 11:46:55;;;;;;;38.50;18.00;;;;;;;0.03;91.63;99056.09;103274;1294;22479;-73
2022/11/29 11:49:45;;;;;;;41.60;17.40;;;;;;;0.03;91.95;99055.86;102983;1313;138230;-73
2022/11/29 11:52:19;;;;;;;44.10;18.80;;;;;;;0.03;92.11;99059.27;103406;1288;22503;-74
2022/11/29 11:54:53;;;;;;;35.00;16.20;;;;;;;0.04;92.22;99063.39;103263;1306;24266;-73